createdAt,value
2023-07-03T00:00:00.189Z,388.00
2023-07-03T00:01:00.216Z,389.00
2023-07-03T00:02:00.262Z,391.00
2023-07-03T00:03:00.371Z,388.00
2023-07-03T00:03:59.382Z,384.00
2023-07-03T00:04:59.418Z,383.00
2023-07-03T00:06:00.423Z,383.00
2023-07-03T00:07:00.411Z,384.00
2023-07-03T00:07:59.455Z,384.00
2023-07-03T00:09:00.484Z,385.00
2023-07-03T00:09:59.485Z,384.00
2023-07-03T00:11:00.556Z,385.00
2023-07-03T00:12:00.577Z,385.00
2023-07-03T00:13:00.585Z,386.00
2023-07-03T00:14:00.626Z,385.00
2023-07-03T00:15:00.665Z,388.00
2023-07-03T00:16:00.683Z,391.00
2023-07-03T00:17:00.741Z,390.00
2023-07-03T00:18:00.843Z,389.00
2023-07-03T00:19:00.815Z,388.00
2023-07-03T00:19:59.796Z,391.00
2023-07-03T00:20:59.845Z,391.00
2023-07-03T00:22:00.918Z,395.00
2023-07-03T00:23:00.924Z,394.00
2023-07-03T00:23:59.954Z,393.00
2023-07-03T00:25:00.978Z,393.00
2023-07-03T00:26:00.034Z,394.00
2023-07-03T00:27:01.048Z,393.00
2023-07-03T00:28:00.097Z,392.00
2023-07-03T00:29:01.124Z,395.00
2023-07-03T00:30:00.196Z,395.00
2023-07-03T00:31:01.178Z,396.00
2023-07-03T00:32:01.335Z,395.00
2023-07-03T00:33:01.347Z,392.00
2023-07-03T00:34:01.300Z,391.00
2023-07-03T00:35:00.401Z,394.00
2023-07-03T00:36:00.399Z,398.00
2023-07-03T00:37:01.427Z,399.00
2023-07-03T00:38:01.493Z,402.00
2023-07-03T00:39:00.502Z,398.00
2023-07-03T00:40:00.542Z,399.00
2023-07-03T00:41:01.565Z,401.00
2023-07-03T00:42:01.621Z,403.00
2023-07-03T00:43:01.652Z,401.00
2023-07-03T00:44:00.691Z,399.00
2023-07-03T00:45:01.748Z,399.00
2023-07-03T00:46:01.792Z,400.00
2023-07-03T00:47:01.795Z,400.00
2023-07-03T00:48:01.930Z,402.00
2023-07-03T00:49:00.872Z,399.00
2023-07-03T00:50:00.909Z,400.00
2023-07-03T00:51:01.942Z,401.00
2023-07-03T00:52:01.968Z,400.00
2023-07-03T00:53:02.016Z,398.00
2023-07-03T00:54:02.078Z,398.00
2023-07-03T00:55:02.094Z,394.00
2023-07-03T00:56:02.132Z,395.00
2023-07-03T00:57:02.161Z,394.00
2023-07-03T00:58:01.209Z,393.00
2023-07-03T00:59:02.241Z,393.00
2023-07-03T01:00:02.283Z,391.00
2023-07-03T01:01:02.302Z,393.00
2023-07-03T01:02:01.425Z,391.00
2023-07-03T01:03:02.487Z,390.00
2023-07-03T01:04:02.435Z,391.00
2023-07-03T01:05:01.589Z,392.00
2023-07-03T01:06:02.668Z,393.00
2023-07-03T01:07:01.531Z,391.00
2023-07-03T01:08:02.590Z,392.00
2023-07-03T01:09:02.651Z,394.00
2023-07-03T01:10:02.699Z,397.00
2023-07-03T01:11:01.692Z,394.00
2023-07-03T01:12:02.751Z,394.00
2023-07-03T01:13:02.786Z,391.00
2023-07-03T01:14:01.883Z,390.00
2023-07-03T01:15:01.898Z,391.00
2023-07-03T01:16:02.952Z,391.00
2023-07-03T01:17:02.925Z,392.00
2023-07-03T01:18:02.936Z,393.00
2023-07-03T01:19:02.997Z,390.00
2023-07-03T01:20:03.050Z,390.00
2023-07-03T01:21:02.094Z,395.00
2023-07-03T01:22:03.082Z,395.00
2023-07-03T01:23:02.140Z,395.00
2023-07-03T01:24:02.188Z,397.00
2023-07-03T01:25:02.233Z,396.00
2023-07-03T01:26:03.290Z,397.00
2023-07-03T01:27:03.328Z,395.00
2023-07-03T01:28:02.356Z,394.00
2023-07-03T01:29:03.421Z,394.00
2023-07-03T01:30:02.442Z,392.00
2023-07-03T01:31:03.515Z,394.00
2023-07-03T01:32:03.531Z,395.00
2023-07-03T01:33:03.566Z,395.00
2023-07-03T01:34:02.614Z,397.00
2023-07-03T01:35:03.641Z,397.00
2023-07-03T01:36:02.689Z,395.00
2023-07-03T01:37:02.717Z,393.00
2023-07-03T01:38:03.763Z,393.00
2023-07-03T01:39:03.802Z,397.00
2023-07-03T01:40:03.860Z,400.00
2023-07-03T01:41:03.901Z,397.00
2023-07-03T01:42:02.944Z,400.00
2023-07-03T01:43:02.965Z,397.00
2023-07-03T01:44:03.003Z,398.00
2023-07-03T01:45:04.015Z,399.00
2023-07-03T01:46:04.092Z,397.00
2023-07-03T01:47:03.125Z,399.00
2023-07-03T01:48:03.205Z,395.00
2023-07-03T01:49:04.200Z,391.00
2023-07-03T01:50:04.252Z,388.00
2023-07-03T01:51:04.278Z,386.00
2023-07-03T01:52:04.305Z,388.00
2023-07-03T01:53:03.378Z,387.00
2023-07-03T01:54:03.386Z,389.00
2023-07-03T01:55:04.432Z,388.00
2023-07-03T01:56:04.491Z,385.00
2023-07-03T01:57:04.495Z,385.00
2023-07-03T01:58:03.695Z,389.00
2023-07-03T01:59:04.597Z,389.00
2023-07-03T02:00:04.643Z,389.00
2023-07-03T02:01:04.699Z,389.00
2023-07-03T02:02:04.787Z,390.00
2023-07-03T02:03:03.795Z,389.00
2023-07-03T02:04:04.801Z,389.00
2023-07-03T02:05:03.846Z,389.00
2023-07-03T02:06:04.879Z,392.00
2023-07-03T02:07:04.926Z,394.00
2023-07-03T02:08:03.977Z,394.00
2023-07-03T02:09:05.030Z,389.00
2023-07-03T02:10:04.063Z,391.00
2023-07-03T02:11:05.123Z,394.00
2023-07-03T02:12:05.151Z,394.00
2023-07-03T02:13:04.206Z,397.00
2023-07-03T02:14:04.261Z,399.00
2023-07-03T02:15:04.294Z,397.00
2023-07-03T02:16:05.345Z,395.00
2023-07-03T02:17:04.482Z,397.00
2023-07-03T02:18:04.433Z,400.00
2023-07-03T02:19:05.484Z,399.00
2023-07-03T02:20:05.519Z,398.00
2023-07-03T02:21:05.586Z,396.00
2023-07-03T02:22:04.622Z,396.00
2023-07-03T02:23:04.665Z,395.00
2023-07-03T02:24:04.693Z,395.00
2023-07-03T02:25:05.738Z,396.00
2023-07-03T02:26:04.802Z,393.00
2023-07-03T02:27:04.846Z,393.00
2023-07-03T02:28:05.896Z,395.00
2023-07-03T02:29:04.937Z,394.00
2023-07-03T02:30:06.041Z,396.00
2023-07-03T02:31:05.147Z,398.00
2023-07-03T02:32:05.073Z,398.00
2023-07-03T02:33:06.220Z,399.00
2023-07-03T02:34:05.163Z,401.00
2023-07-03T02:35:06.201Z,400.00
2023-07-03T02:36:06.246Z,400.00
2023-07-03T02:37:06.319Z,401.00
2023-07-03T02:38:05.343Z,404.00
2023-07-03T02:39:06.402Z,402.00
2023-07-03T02:40:05.429Z,405.00
2023-07-03T02:41:05.471Z,408.00
2023-07-03T02:42:06.522Z,405.00
2023-07-03T02:43:06.547Z,405.00
2023-07-03T02:44:05.673Z,402.00
2023-07-03T02:45:05.662Z,401.00
2023-07-03T02:46:06.724Z,401.00
2023-07-03T02:47:05.811Z,402.00
2023-07-03T02:48:05.824Z,404.00
2023-07-03T02:49:06.826Z,401.00
2023-07-03T02:50:07.035Z,402.00
2023-07-03T02:51:06.908Z,401.00
2023-07-03T02:52:06.954Z,400.00
2023-07-03T02:53:07.014Z,404.00
2023-07-03T02:54:07.096Z,402.00
2023-07-03T02:55:06.087Z,403.00
2023-07-03T02:56:06.138Z,402.00
2023-07-03T02:57:06.179Z,405.00
2023-07-03T02:58:07.225Z,403.00
2023-07-03T02:59:06.253Z,402.00
2023-07-03T03:00:07.311Z,404.00
2023-07-03T03:01:06.427Z,405.00
2023-07-03T03:02:07.427Z,401.00
2023-07-03T03:03:07.511Z,402.00
2023-07-03T03:04:06.532Z,401.00
2023-07-03T03:05:06.519Z,401.00
2023-07-03T03:06:06.599Z,401.00
2023-07-03T03:07:06.627Z,402.00
2023-07-03T03:08:07.664Z,400.00
2023-07-03T03:09:07.689Z,398.00
2023-07-03T03:10:07.740Z,400.00
2023-07-03T03:11:07.819Z,396.00
2023-07-03T03:12:06.830Z,396.00
2023-07-03T03:13:07.901Z,401.00
2023-07-03T03:14:06.911Z,402.00
2023-07-03T03:15:06.946Z,404.00
2023-07-03T03:16:07.032Z,399.00
2023-07-03T03:17:08.013Z,402.00
2023-07-03T03:18:07.181Z,402.00
2023-07-03T03:19:07.108Z,401.00
2023-07-03T03:20:08.168Z,400.00
2023-07-03T03:21:07.277Z,403.00
2023-07-03T03:22:07.247Z,402.00
2023-07-03T03:23:08.306Z,404.00
2023-07-03T03:24:07.356Z,406.00
2023-07-03T03:25:08.391Z,405.00
2023-07-03T03:26:07.440Z,406.00
2023-07-03T03:27:08.500Z,404.00
2023-07-03T03:28:07.514Z,402.00
2023-07-03T03:29:07.579Z,402.00
2023-07-03T03:30:07.606Z,401.00
2023-07-03T03:31:08.669Z,399.00
2023-07-03T03:32:08.716Z,397.00
2023-07-03T03:33:07.725Z,398.00
2023-07-03T03:34:08.808Z,401.00
2023-07-03T03:35:08.838Z,403.00
2023-07-03T03:36:07.869Z,403.00
2023-07-03T03:37:07.931Z,403.00
2023-07-03T03:38:08.984Z,403.00
2023-07-03T03:39:09.036Z,405.00
2023-07-03T03:40:08.088Z,407.00
2023-07-03T03:41:09.142Z,405.00
2023-07-03T03:42:08.176Z,405.00
2023-07-03T03:43:09.212Z,405.00
2023-07-03T03:44:08.278Z,405.00
2023-07-03T03:45:08.339Z,409.00
2023-07-03T03:46:08.358Z,406.00
2023-07-03T03:47:09.420Z,406.00
2023-07-03T03:48:09.511Z,402.00
2023-07-03T03:49:08.513Z,400.00
2023-07-03T03:50:09.558Z,402.00
2023-07-03T03:51:08.568Z,402.00
2023-07-03T03:52:09.630Z,399.00
2023-07-03T03:53:08.667Z,400.00
2023-07-03T03:54:09.708Z,401.00
2023-07-03T03:55:09.773Z,404.00
2023-07-03T03:56:09.779Z,403.00
2023-07-03T03:57:09.824Z,404.00
2023-07-03T03:58:09.858Z,405.00
2023-07-03T03:59:09.934Z,404.00
2023-07-03T04:00:08.961Z,404.00
2023-07-03T04:01:10.095Z,404.00
2023-07-03T04:02:10.122Z,403.00
2023-07-03T04:03:09.104Z,403.00
2023-07-03T04:04:09.193Z,403.00
2023-07-03T04:05:10.347Z,401.00
2023-07-03T04:06:09.308Z,403.00
2023-07-03T04:07:10.322Z,404.00
2023-07-03T04:08:10.357Z,402.00
2023-07-03T04:09:09.401Z,402.00
2023-07-03T04:10:10.434Z,401.00
2023-07-03T04:11:10.473Z,403.00
2023-07-03T04:12:09.542Z,403.00
2023-07-03T04:13:09.558Z,404.00
2023-07-03T04:14:10.700Z,405.00
2023-07-03T04:15:10.709Z,402.00
2023-07-03T04:16:10.755Z,401.00
2023-07-03T04:17:10.762Z,401.00
2023-07-03T04:18:10.822Z,400.00
2023-07-03T04:19:10.867Z,402.00
2023-07-03T04:20:10.901Z,398.00
2023-07-03T04:21:10.954Z,397.00
2023-07-03T04:22:09.963Z,399.00
2023-07-03T04:23:11.009Z,399.00
2023-07-03T04:24:11.094Z,398.00
2023-07-03T04:25:11.104Z,401.00
2023-07-03T04:26:10.140Z,402.00
2023-07-03T04:27:10.198Z,405.00
2023-07-03T04:28:11.228Z,402.00
2023-07-03T04:29:11.313Z,402.00
2023-07-03T04:30:11.304Z,401.00
2023-07-03T04:31:10.417Z,400.00
2023-07-03T04:32:11.411Z,401.00
2023-07-03T04:33:11.428Z,401.00
2023-07-03T04:34:11.516Z,401.00
2023-07-03T04:35:11.534Z,400.00
2023-07-03T04:36:11.577Z,400.00
2023-07-03T04:37:11.681Z,400.00
2023-07-03T04:38:11.677Z,401.00
2023-07-03T04:39:11.728Z,401.00
2023-07-03T04:40:11.753Z,402.00
2023-07-03T04:41:11.805Z,401.00
2023-07-03T04:42:11.888Z,402.00
2023-07-03T04:43:10.902Z,402.00
2023-07-03T04:44:10.954Z,404.00
2023-07-03T04:45:11.987Z,404.00
2023-07-03T04:46:11.081Z,404.00
2023-07-03T04:47:11.100Z,403.00
2023-07-03T04:48:11.114Z,402.00
2023-07-03T04:49:11.166Z,403.00
2023-07-03T04:50:11.213Z,403.00
2023-07-03T04:51:12.255Z,404.00
2023-07-03T04:52:12.301Z,406.00
2023-07-03T04:53:12.374Z,406.00
2023-07-03T04:54:11.401Z,405.00
2023-07-03T04:55:11.438Z,406.00
2023-07-03T04:56:12.492Z,408.00
2023-07-03T04:57:11.551Z,408.00
2023-07-03T04:58:12.628Z,406.00
2023-07-03T04:59:11.638Z,407.00
2023-07-03T05:00:11.679Z,407.00
2023-07-03T05:01:12.767Z,406.00
2023-07-03T05:02:12.805Z,405.00
2023-07-03T05:03:12.924Z,406.00
2023-07-03T05:04:13.154Z,404.00
2023-07-03T05:05:13.117Z,404.00
2023-07-03T05:06:12.123Z,402.00
2023-07-03T05:07:12.598Z,404.00
2023-07-03T05:08:13.253Z,405.00
2023-07-03T05:09:12.170Z,401.00
2023-07-03T05:10:13.188Z,404.00
2023-07-03T05:11:12.194Z,404.00
2023-07-03T05:12:13.227Z,403.00
2023-07-03T05:13:13.270Z,405.00
2023-07-03T05:14:12.337Z,404.00
2023-07-03T05:15:12.355Z,406.00
2023-07-03T05:16:13.443Z,406.00
2023-07-03T05:17:12.432Z,406.00
2023-07-03T05:18:13.514Z,407.00
2023-07-03T05:19:12.526Z,405.00
2023-07-03T05:20:12.581Z,404.00
2023-07-03T05:21:13.641Z,407.00
2023-07-03T05:22:13.667Z,408.00
2023-07-03T05:23:13.708Z,409.00
2023-07-03T05:24:13.778Z,408.00
2023-07-03T05:25:13.822Z,407.00
2023-07-03T05:26:12.831Z,407.00
2023-07-03T05:27:13.886Z,408.00
2023-07-03T05:28:12.907Z,409.00
2023-07-03T05:29:12.976Z,410.00
2023-07-03T05:30:13.012Z,409.00
2023-07-03T05:31:13.083Z,410.00
2023-07-03T05:32:13.116Z,411.00
2023-07-03T05:33:13.148Z,409.00
2023-07-03T05:34:13.203Z,410.00
2023-07-03T05:35:13.242Z,411.00
2023-07-03T05:36:14.283Z,411.00
2023-07-03T05:37:14.373Z,412.00
2023-07-03T05:38:13.481Z,412.00
2023-07-03T05:39:14.465Z,413.00
2023-07-03T05:40:14.510Z,412.00
2023-07-03T05:41:14.534Z,413.00
2023-07-03T05:42:13.590Z,411.00
2023-07-03T05:43:13.609Z,410.00
2023-07-03T05:44:13.656Z,411.00
2023-07-03T05:45:13.704Z,409.00
2023-07-03T05:46:14.790Z,407.00
2023-07-03T05:47:14.861Z,408.00
2023-07-03T05:48:14.879Z,408.00
2023-07-03T05:49:13.851Z,412.00
2023-07-03T05:50:13.979Z,411.00
2023-07-03T05:51:13.960Z,411.00
2023-07-03T05:52:15.073Z,409.00
2023-07-03T05:53:15.040Z,407.00
2023-07-03T05:54:15.113Z,406.00
2023-07-03T05:55:14.118Z,408.00
2023-07-03T05:56:14.222Z,405.00
2023-07-03T05:57:15.269Z,405.00
2023-07-03T05:58:15.263Z,402.00
2023-07-03T05:59:14.317Z,402.00
2023-07-03T06:00:14.781Z,402.00
2023-07-03T06:01:15.517Z,404.00
2023-07-03T06:02:14.477Z,404.00
2023-07-03T06:03:14.609Z,406.00
2023-07-03T06:04:14.710Z,409.00
2023-07-03T06:05:14.664Z,411.00
2023-07-03T06:06:15.618Z,411.00
2023-07-03T06:07:14.665Z,411.00
2023-07-03T06:08:15.713Z,412.00
2023-07-03T06:09:15.737Z,411.00
2023-07-03T06:10:15.799Z,410.00
2023-07-03T06:11:15.840Z,410.00
2023-07-03T06:12:14.862Z,412.00
2023-07-03T06:13:15.903Z,411.00
2023-07-03T06:14:15.925Z,410.00
2023-07-03T06:15:15.307Z,408.00
2023-07-03T06:16:16.922Z,409.00
2023-07-03T06:17:16.103Z,410.00
2023-07-03T06:18:15.080Z,413.00
2023-07-03T06:19:15.102Z,414.00
2023-07-03T06:20:16.108Z,412.00
2023-07-03T06:21:15.173Z,414.00
2023-07-03T06:22:16.391Z,415.00
2023-07-03T06:23:15.294Z,414.00
2023-07-03T06:24:16.239Z,411.00
2023-07-03T06:25:15.296Z,412.00
2023-07-03T06:26:16.272Z,410.00
2023-07-03T06:27:16.362Z,409.00
2023-07-03T06:28:15.375Z,408.00
2023-07-03T06:29:15.429Z,409.00
2023-07-03T06:30:15.402Z,409.00
2023-07-03T06:31:15.453Z,409.00
2023-07-03T06:32:15.483Z,409.00
2023-07-03T06:33:16.468Z,408.00
2023-07-03T06:34:16.500Z,407.00
2023-07-03T06:35:16.678Z,409.00
2023-07-03T06:36:15.555Z,412.00
2023-07-03T06:37:15.548Z,413.00
2023-07-03T06:38:16.636Z,412.00
2023-07-03T06:39:16.626Z,414.00
2023-07-03T06:40:16.648Z,413.00
2023-07-03T06:41:15.660Z,410.00
2023-07-03T06:42:16.686Z,410.00
2023-07-03T06:43:16.674Z,411.00
2023-07-03T06:44:15.714Z,412.00
2023-07-03T06:45:16.828Z,413.00
2023-07-03T06:46:15.760Z,414.00
2023-07-03T06:47:16.781Z,414.00
2023-07-03T06:48:15.782Z,415.00
2023-07-03T06:49:16.815Z,418.00
2023-07-03T06:50:15.850Z,420.00
2023-07-03T06:51:16.850Z,417.00
2023-07-03T06:52:15.921Z,417.00
2023-07-03T06:53:16.935Z,417.00
2023-07-03T06:54:16.929Z,419.00
2023-07-03T06:55:15.933Z,419.00
2023-07-03T06:56:15.968Z,417.00
2023-07-03T06:57:16.959Z,417.00
2023-07-03T06:58:15.983Z,418.00
2023-07-03T06:59:17.007Z,418.00
2023-07-03T07:00:16.052Z,421.00
2023-07-03T07:01:17.212Z,420.00
2023-07-03T07:02:17.111Z,422.00
2023-07-03T07:03:17.190Z,421.00
2023-07-03T07:04:16.195Z,418.00
2023-07-03T07:05:17.229Z,417.00
2023-07-03T07:06:17.211Z,417.00
2023-07-03T07:07:16.192Z,418.00
2023-07-03T07:08:17.272Z,419.00
2023-07-03T07:09:16.236Z,417.00
2023-07-03T07:10:17.271Z,413.00
2023-07-03T07:11:16.274Z,414.00
2023-07-03T07:12:17.298Z,416.00
2023-07-03T07:13:17.310Z,415.00
2023-07-03T07:14:16.347Z,415.00
2023-07-03T07:15:16.387Z,417.00
2023-07-03T07:16:17.520Z,417.00
2023-07-03T07:17:17.604Z,417.00
2023-07-03T07:18:16.453Z,417.00
2023-07-03T07:19:16.485Z,419.00
2023-07-03T07:20:17.533Z,420.00
2023-07-03T07:21:17.521Z,420.00
2023-07-03T07:22:17.551Z,420.00
2023-07-03T07:23:17.567Z,416.00
2023-07-03T07:24:18.569Z,417.00
2023-07-03T07:25:17.588Z,418.00
2023-07-03T07:26:16.627Z,416.00
2023-07-03T07:27:16.641Z,414.00
2023-07-03T07:28:16.636Z,414.00
2023-07-03T07:29:16.689Z,409.00
2023-07-03T07:30:16.701Z,409.00
2023-07-03T07:31:17.947Z,412.00
2023-07-03T07:32:16.708Z,411.00
2023-07-03T07:33:17.842Z,413.00
2023-07-03T07:34:16.728Z,416.00
2023-07-03T07:35:17.770Z,416.00
2023-07-03T07:36:17.749Z,418.00
2023-07-03T07:37:17.753Z,415.00
2023-07-03T07:38:16.757Z,418.00
2023-07-03T07:39:17.760Z,414.00
2023-07-03T07:40:17.781Z,415.00
2023-07-03T07:41:16.855Z,414.00
2023-07-03T07:42:16.856Z,412.00
2023-07-03T07:43:17.873Z,415.00
2023-07-03T07:44:16.850Z,415.00
2023-07-03T07:45:17.886Z,415.00
2023-07-03T07:46:17.925Z,412.00
2023-07-03T07:47:16.901Z,412.00
2023-07-03T07:48:18.046Z,412.00
2023-07-03T07:49:18.070Z,411.00
2023-07-03T07:50:16.940Z,411.00
2023-07-03T07:51:17.955Z,412.00
2023-07-03T07:52:16.952Z,414.00
2023-07-03T07:53:17.984Z,416.00
2023-07-03T07:54:17.987Z,416.00
2023-07-03T07:55:18.020Z,414.00
2023-07-03T07:56:17.035Z,412.00
2023-07-03T07:57:18.082Z,412.00
2023-07-03T07:58:17.117Z,413.00
2023-07-03T07:59:17.082Z,417.00
2023-07-03T08:00:17.177Z,419.00
2023-07-03T08:01:18.275Z,420.00
2023-07-03T08:02:18.152Z,420.00
2023-07-03T08:03:18.155Z,418.00
2023-07-03T08:04:18.152Z,418.00
2023-07-03T08:05:18.398Z,418.00
2023-07-03T08:06:17.123Z,418.00
2023-07-03T08:07:18.138Z,418.00
2023-07-03T08:08:17.148Z,420.00
2023-07-03T08:09:18.148Z,418.00
2023-07-03T08:10:17.641Z,421.00
2023-07-03T08:11:18.179Z,421.00
2023-07-03T08:12:17.186Z,419.00
2023-07-03T08:13:18.205Z,417.00
2023-07-03T08:14:18.194Z,417.00
2023-07-03T08:15:17.200Z,419.00
2023-07-03T08:16:17.278Z,419.00
2023-07-03T08:17:17.215Z,418.00
2023-07-03T08:18:18.233Z,419.00
2023-07-03T08:19:17.292Z,420.00
2023-07-03T08:20:18.271Z,415.00
2023-07-03T08:21:18.384Z,414.00
2023-07-03T08:22:18.259Z,416.00
2023-07-03T08:23:17.266Z,416.00
2023-07-03T08:24:18.264Z,417.00
2023-07-03T08:25:17.341Z,418.00
2023-07-03T08:26:18.333Z,417.00
2023-07-03T08:27:18.305Z,418.00
2023-07-03T08:28:17.318Z,416.00
2023-07-03T08:29:18.403Z,415.00
2023-07-03T08:30:17.395Z,417.00
2023-07-03T08:31:18.410Z,418.00
2023-07-03T08:32:18.406Z,418.00
2023-07-03T08:33:17.573Z,417.00
2023-07-03T08:34:17.460Z,412.00
2023-07-03T08:37:17.506Z,414.00
2023-07-03T08:38:18.394Z,417.00
2023-07-03T08:39:17.344Z,417.00
2023-07-03T08:40:18.382Z,417.00
2023-07-03T08:41:17.385Z,414.00
2023-07-03T08:42:18.311Z,414.00
2023-07-03T08:43:17.350Z,414.00
2023-07-03T08:44:18.311Z,414.00
2023-07-03T08:45:17.359Z,414.00
2023-07-03T08:46:18.415Z,414.00
2023-07-03T08:47:17.487Z,414.00
2023-07-03T08:48:17.295Z,413.00
2023-07-03T08:49:17.296Z,411.00
2023-07-03T08:50:28.075Z,412.00
2023-07-03T08:51:18.248Z,413.00
2023-07-03T08:52:18.244Z,413.00
2023-07-03T08:53:18.370Z,412.00
2023-07-03T08:54:17.248Z,412.00
2023-07-03T08:55:17.341Z,412.00
2023-07-03T08:56:17.248Z,413.00
2023-07-03T08:57:18.200Z,414.00
2023-07-03T08:58:18.204Z,414.00
2023-07-03T08:59:18.191Z,414.00
2023-07-03T09:00:18.217Z,412.00
2023-07-03T09:01:17.229Z,411.00
2023-07-03T09:02:17.295Z,411.00
2023-07-03T09:03:18.267Z,411.00
2023-07-03T09:04:18.192Z,412.00
2023-07-03T09:05:17.166Z,411.00
2023-07-03T09:06:18.167Z,407.00
2023-07-03T09:07:17.125Z,407.00
2023-07-03T09:08:17.145Z,407.00
2023-07-03T09:09:18.262Z,408.00
2023-07-03T09:10:18.101Z,407.00
2023-07-03T09:11:18.092Z,405.00
2023-07-03T09:12:17.083Z,407.00
2023-07-03T09:13:17.069Z,408.00
2023-07-03T09:14:18.136Z,408.00
2023-07-03T09:15:18.099Z,406.00
2023-07-03T09:16:17.163Z,407.00
2023-07-03T09:17:17.220Z,408.00
2023-07-03T09:18:18.619Z,411.00
2023-07-03T09:19:18.190Z,409.00
2023-07-03T09:20:18.161Z,408.00
2023-07-03T09:21:18.079Z,410.00
2023-07-03T09:22:18.024Z,405.00
2023-07-03T09:23:17.044Z,406.00
2023-07-03T09:24:17.998Z,409.00
2023-07-03T09:25:18.148Z,407.00
2023-07-03T09:26:16.992Z,408.00
2023-07-03T09:27:18.004Z,408.00
2023-07-03T09:28:17.603Z,412.00
2023-07-03T09:29:16.986Z,411.00
2023-07-03T09:30:17.239Z,413.00
2023-07-03T09:31:18.040Z,410.00
2023-07-03T09:32:16.927Z,409.00
2023-07-03T09:33:17.001Z,410.00
2023-07-03T09:34:17.037Z,411.00
2023-07-03T09:35:17.134Z,409.00
2023-07-03T09:36:17.965Z,410.00
2023-07-03T09:37:17.005Z,410.00
2023-07-03T09:38:17.028Z,411.00
2023-07-03T09:39:18.038Z,412.00
2023-07-03T09:40:18.122Z,411.00
2023-07-03T09:41:18.199Z,410.00
2023-07-03T09:42:17.101Z,412.00
2023-07-03T09:43:17.184Z,411.00
2023-07-03T09:44:17.179Z,407.00
2023-07-03T09:45:18.218Z,408.00
2023-07-03T09:46:17.285Z,410.00
2023-07-03T09:47:17.372Z,411.00
2023-07-03T09:48:17.396Z,409.00
2023-07-03T09:49:17.416Z,410.00
2023-07-03T09:50:18.471Z,411.00
2023-07-03T09:51:17.467Z,410.00
2023-07-03T09:52:17.522Z,410.00
2023-07-03T09:53:17.674Z,408.00
2023-07-03T09:54:18.587Z,405.00
2023-07-03T09:55:20.422Z,406.00
2023-07-03T09:56:18.665Z,404.00
2023-07-03T09:57:18.786Z,403.00
2023-07-03T09:58:18.683Z,404.00
2023-07-03T09:59:17.616Z,406.00
2023-07-03T10:00:17.603Z,405.00
2023-07-03T10:07:17.716Z,404.00
2023-07-03T10:08:18.712Z,404.00
2023-07-03T10:11:17.646Z,403.00
2023-07-03T10:12:17.676Z,404.00
2023-07-03T10:13:18.660Z,402.00
2023-07-03T10:14:17.508Z,403.00
2023-07-03T10:15:18.519Z,394.00
2023-07-03T10:16:17.579Z,397.00
2023-07-03T10:17:18.633Z,398.00
2023-07-03T10:18:17.552Z,396.00
2023-07-03T10:19:18.461Z,396.00
2023-07-03T10:20:17.682Z,399.00
2023-07-03T10:21:18.493Z,397.00
2023-07-03T10:22:18.480Z,396.00
2023-07-03T10:23:17.454Z,396.00
2023-07-03T10:24:17.448Z,395.00
2023-07-03T10:25:18.486Z,395.00
2023-07-03T10:26:17.415Z,394.00
2023-07-03T10:27:18.393Z,394.00
2023-07-03T10:28:17.413Z,396.00
2023-07-03T10:29:18.502Z,399.00
2023-07-03T10:30:18.418Z,398.00
2023-07-03T10:31:17.431Z,399.00
2023-07-03T10:32:17.411Z,399.00
2023-07-03T10:33:18.409Z,398.00
2023-07-03T10:34:18.330Z,399.00
2023-07-03T10:35:17.320Z,400.00
2023-07-03T10:36:18.369Z,400.00
2023-07-03T10:37:18.377Z,402.00
2023-07-03T10:38:17.377Z,401.00
2023-07-03T10:39:17.360Z,402.00
2023-07-03T10:40:17.433Z,402.00
2023-07-03T10:41:18.477Z,401.00
2023-07-03T10:42:18.494Z,401.00
2023-07-03T10:43:17.592Z,401.00
2023-07-03T10:44:17.590Z,402.00
2023-07-03T10:45:18.831Z,398.00
2023-07-03T10:46:18.673Z,401.00
2023-07-03T10:47:17.737Z,399.00
2023-07-03T10:48:18.775Z,397.00
2023-07-03T10:49:17.837Z,396.00
2023-07-03T10:50:18.868Z,397.00
2023-07-03T10:51:18.901Z,397.00
2023-07-03T10:52:18.957Z,397.00
2023-07-03T10:53:18.991Z,399.00
2023-07-03T10:54:18.057Z,401.00
2023-07-03T10:55:19.080Z,403.00
2023-07-03T10:56:19.112Z,402.00
2023-07-03T10:57:18.175Z,402.00
2023-07-03T10:58:19.240Z,398.00
2023-07-03T10:59:19.246Z,400.00
2023-07-03T11:00:19.291Z,398.00
2023-07-03T11:01:18.525Z,400.00
2023-07-03T11:02:19.370Z,397.00
2023-07-03T11:03:19.426Z,399.00
2023-07-03T11:04:24.702Z,399.00
2023-07-03T11:05:19.453Z,399.00
2023-07-03T11:06:19.462Z,400.00
2023-07-03T11:07:19.477Z,399.00
2023-07-03T11:08:19.438Z,400.00
2023-07-03T11:09:19.421Z,398.00
2023-07-03T11:10:19.421Z,399.00
2023-07-03T11:11:18.452Z,398.00
2023-07-03T11:12:18.391Z,400.00
2023-07-03T11:13:19.429Z,403.00
2023-07-03T11:14:19.424Z,405.00
2023-07-03T11:15:19.387Z,401.00
2023-07-03T11:16:19.459Z,401.00
2023-07-03T11:17:18.555Z,401.00
2023-07-03T11:20:18.617Z,406.00
2023-07-03T11:23:18.338Z,405.00
2023-07-03T11:24:18.453Z,402.00
2023-07-03T11:25:18.287Z,403.00
2023-07-03T11:28:18.303Z,400.00
2023-07-03T11:29:19.288Z,403.00
2023-07-03T11:30:19.269Z,401.00
2023-07-03T11:31:19.300Z,400.00
2023-07-03T11:32:19.263Z,403.00
2023-07-03T11:33:19.355Z,402.00
2023-07-03T11:36:18.231Z,404.00
2023-07-03T11:37:18.244Z,404.00
2023-07-03T11:40:18.229Z,409.00
2023-07-03T11:44:18.190Z,404.00
2023-07-03T11:45:18.180Z,405.00
2023-07-03T11:46:18.188Z,406.00
2023-07-03T11:47:18.244Z,410.00
2023-07-03T11:48:19.163Z,410.00
2023-07-03T11:49:19.181Z,413.00
2023-07-03T11:50:18.149Z,413.00
2023-07-03T11:51:18.164Z,410.00
2023-07-03T11:52:19.177Z,410.00
2023-07-03T11:53:18.091Z,411.00
2023-07-03T11:54:19.125Z,408.00
2023-07-03T11:55:18.091Z,408.00
2023-07-03T11:56:19.096Z,406.00
2023-07-03T11:57:19.146Z,402.00
2023-07-03T11:58:21.373Z,403.00
2023-07-03T11:59:19.104Z,401.00
2023-07-03T12:00:18.104Z,400.00
2023-07-03T12:01:18.096Z,400.00
2023-07-03T12:02:18.028Z,399.00
2023-07-03T12:03:19.106Z,400.00
2023-07-03T12:04:18.127Z,403.00
2023-07-03T12:05:18.118Z,407.00
2023-07-03T12:06:18.055Z,406.00
2023-07-03T12:07:18.992Z,407.00
2023-07-03T12:08:17.993Z,407.00
2023-07-03T12:09:18.999Z,405.00
2023-07-03T12:10:17.986Z,404.00
2023-07-03T12:11:18.178Z,403.00
2023-07-03T12:12:17.988Z,403.00
2023-07-03T12:13:19.026Z,402.00
2023-07-03T12:14:17.989Z,400.00
2023-07-03T12:15:17.973Z,402.00
2023-07-03T12:16:19.044Z,402.00
2023-07-03T12:17:18.012Z,404.00
2023-07-03T12:18:17.942Z,404.00
2023-07-03T12:19:19.044Z,400.00
2023-07-03T12:20:17.938Z,402.00
2023-07-03T12:21:18.971Z,402.00
2023-07-03T12:22:18.901Z,398.00
2023-07-03T12:23:18.977Z,396.00
2023-07-03T12:24:17.992Z,397.00
2023-07-03T12:25:18.891Z,394.00
2023-07-03T12:26:18.924Z,395.00
2023-07-03T12:27:17.912Z,398.00
2023-07-03T12:28:18.887Z,398.00
2023-07-03T12:29:19.998Z,396.00
2023-07-03T12:30:18.945Z,398.00
2023-07-03T12:31:18.909Z,401.00
2023-07-03T12:32:18.845Z,401.00
2023-07-03T12:33:17.868Z,404.00
2023-07-03T12:34:18.848Z,404.00
2023-07-03T12:35:17.811Z,400.00
2023-07-03T12:36:17.842Z,398.00
2023-07-03T12:37:18.805Z,395.00
2023-07-03T12:38:17.782Z,395.00
2023-07-03T12:39:17.782Z,393.00
2023-07-03T12:40:17.771Z,394.00
2023-07-03T12:41:18.784Z,396.00
2023-07-03T12:42:18.775Z,398.00
2023-07-03T12:43:18.760Z,398.00
2023-07-03T12:44:18.809Z,400.00
2023-07-03T12:45:18.805Z,398.00
2023-07-03T12:46:17.734Z,398.00
2023-07-03T12:47:17.717Z,396.00
2023-07-03T12:48:18.762Z,397.00
2023-07-03T12:49:17.728Z,398.00
2023-07-03T12:50:17.734Z,397.00
2023-07-03T12:51:17.740Z,396.00